sensor_id;sensor_type;location;lat;lon;timestamp;pressure;altitude;pressure_sealevel;temperature;humidity
68654;BME280;55636;51.108;13.622;2023-01-15T00:00:24;98891.50;;;9.65;55.93
68654;BME280;55636;51.108;13.622;2023-01-15T00:01:29;98903.06;;;9.67;55.83
68654;BME280;55636;51.108;13.622;2023-01-15T00:02:32;98902.47;;;9.70;56.01
68654;BME280;55636;51.108;13.622;2023-01-15T00:03:34;98891.47;;;9.70;55.90
68654;BME280;55636;51.108;13.622;2023-01-15T00:04:36;98884.28;;;9.69;55.81
68654;BME280;55636;51.108;13.622;2023-01-15T00:05:38;98874.91;;;9.70;55.87
68654;BME280;55636;51.108;13.622;2023-01-15T00:06:41;98880.13;;;9.71;55.64
68654;BME280;55636;51.108;13.622;2023-01-15T00:07:43;98880.13;;;9.71;55.97
68654;BME280;55636;51.108;13.622;2023-01-15T00:08:46;98874.31;;;9.73;55.68
68654;BME280;55636;51.108;13.622;2023-01-15T00:09:49;98873.22;;;9.74;55.98
68654;BME280;55636;51.108;13.622;2023-01-15T00:10:51;98876.28;;;9.73;55.79
68654;BME280;55636;51.108;13.622;2023-01-15T00:11:56;98868.81;;;9.73;55.82
68654;BME280;55636;51.108;13.622;2023-01-15T00:12:58;98867.69;;;9.74;55.79
68654;BME280;55636;51.108;13.622;2023-01-15T00:14:00;98859.13;;;9.76;55.79
68654;BME280;55636;51.108;13.622;2023-01-15T00:15:02;98852.50;;;9.77;55.74
68654;BME280;55636;51.108;13.622;2023-01-15T00:16:06;98852.22;;;9.78;55.83
68654;BME280;55636;51.108;13.622;2023-01-15T00:17:09;98840.38;;;9.78;55.78
68654;BME280;55636;51.108;13.622;2023-01-15T00:18:11;98852.50;;;9.77;55.61
68654;BME280;55636;51.108;13.622;2023-01-15T00:19:13;98840.66;;;9.76;55.79
68654;BME280;55636;51.108;13.622;2023-01-15T00:20:16;98853.88;;;9.79;55.63
68654;BME280;55636;51.108;13.622;2023-01-15T00:21:19;98852.75;;;9.80;55.95
68654;BME280;55636;51.108;13.622;2023-01-15T00:22:22;98844.47;;;9.80;56.17
68654;BME280;55636;51.108;13.622;2023-01-15T00:23:24;98853.56;;;9.81;56.10
68654;BME280;55636;51.108;13.622;2023-01-15T00:24:45;98853.28;;;9.82;56.19
68654;BME280;55636;51.108;13.622;2023-01-15T00:26:09;98845.53;;;9.84;56.31
68654;BME280;55636;51.108;13.622;2023-01-15T00:27:32;98854.66;;;9.85;56.21
68654;BME280;55636;51.108;13.622;2023-01-15T00:28:42;98856.00;;;9.87;56.19
68654;BME280;55636;51.108;13.622;2023-01-15T00:29:44;98851.81;;;9.90;56.18
68654;BME280;55636;51.108;13.622;2023-01-15T00:30:46;98842.97;;;9.93;56.25
68654;BME280;55636;51.108;13.622;2023-01-15T00:31:57;98852.03;;;9.94;55.95
68654;BME280;55636;51.108;13.622;2023-01-15T00:32:59;98838.81;;;9.96;56.00
68654;BME280;55636;51.108;13.622;2023-01-15T00:34:02;98828.56;;;9.96;55.98
68654;BME280;55636;51.108;13.622;2023-01-15T00:35:04;98829.13;;;9.98;55.96
68654;BME280;55636;51.108;13.622;2023-01-15T00:36:07;98821.66;;;9.99;55.83
68654;BME280;55636;51.108;13.622;2023-01-15T00:37:09;98815.84;;;10.00;55.81
68654;BME280;55636;51.108;13.622;2023-01-15T00:38:11;98810.84;;;10.02;55.65
68654;BME280;55636;51.108;13.622;2023-01-15T00:39:14;98814.97;;;10.05;55.96
68654;BME280;55636;51.108;13.622;2023-01-15T00:40:17;98812.19;;;10.05;56.09
68654;BME280;55636;51.108;13.622;2023-01-15T00:41:24;98811.91;;;10.07;55.93
68654;BME280;55636;51.108;13.622;2023-01-15T00:42:26;98808.03;;;10.08;55.74
68654;BME280;55636;51.108;13.622;2023-01-15T00:43:30;98802.81;;;10.06;55.94
68654;BME280;55636;51.108;13.622;2023-01-15T00:44:32;98794.25;;;10.08;55.69
68654;BME280;55636;51.108;13.622;2023-01-15T00:45:34;98783.75;;;10.10;55.66
68654;BME280;55636;51.108;13.622;2023-01-15T00:46:37;98798.34;;;10.10;55.46
68654;BME280;55636;51.108;13.622;2023-01-15T00:47:41;98784.25;;;10.12;55.31
68654;BME280;55636;51.108;13.622;2023-01-15T00:48:47;98785.59;;;10.14;55.52
68654;BME280;55636;51.108;13.622;2023-01-15T00:49:49;98791.69;;;10.16;55.38
68654;BME280;55636;51.108;13.622;2023-01-15T00:50:52;98792.75;;;10.15;55.24
68654;BME280;55636;51.108;13.622;2023-01-15T00:51:54;98789.72;;;10.17;55.30
68654;BME280;55636;51.108;13.622;2023-01-15T00:52:57;98790.53;;;10.17;55.39
68654;BME280;55636;51.108;13.622;2023-01-15T00:53:59;98793.03;;;10.19;55.24
68654;BME280;55636;51.108;13.622;2023-01-15T00:55:03;98774.81;;;10.18;55.24
68654;BME280;55636;51.108;13.622;2023-01-15T00:56:05;98777.28;;;10.19;55.21
68654;BME280;55636;51.108;13.622;2023-01-15T00:57:08;98785.25;;;10.21;55.27
68654;BME280;55636;51.108;13.622;2023-01-15T00:58:12;98784.44;;;10.20;55.23
68654;BME280;55636;51.108;13.622;2023-01-15T00:59:14;98782.50;;;10.21;55.09
68654;BME280;55636;51.108;13.622;2023-01-15T01:00:17;98785.25;;;10.21;55.17
68654;BME280;55636;51.108;13.622;2023-01-15T01:01:20;98789.13;;;10.20;55.21
68654;BME280;55636;51.108;13.622;2023-01-15T01:02:23;98780.59;;;10.22;55.07
68654;BME280;55636;51.108;13.622;2023-01-15T01:03:26;98783.84;;;10.24;55.17
68654;BME280;55636;51.108;13.622;2023-01-15T01:04:28;98781.94;;;10.24;55.18
68654;BME280;55636;51.108;13.622;2023-01-15T01:05:31;98779.16;;;10.24;55.09
68654;BME280;55636;51.108;13.622;2023-01-15T01:06:34;98786.31;;;10.25;55.03
68654;BME280;55636;51.108;13.622;2023-01-15T01:07:36;98762.31;;;10.26;55.13
68654;BME280;55636;51.108;13.622;2023-01-15T01:08:38;98754.53;;;10.28;55.14
68654;BME280;55636;51.108;13.622;2023-01-15T01:09:41;98761.69;;;10.29;55.03
68654;BME280;55636;51.108;13.622;2023-01-15T01:10:43;98758.94;;;10.29;55.09
68654;BME280;55636;51.108;13.622;2023-01-15T01:11:47;98768.88;;;10.30;54.92
68654;BME280;55636;51.108;13.622;2023-01-15T01:12:50;98755.69;;;10.27;55.04
68654;BME280;55636;51.108;13.622;2023-01-15T01:13:54;98746.25;;;10.28;55.20
68654;BME280;55636;51.108;13.622;2023-01-15T01:14:56;98761.19;;;10.27;55.13
68654;BME280;55636;51.108;13.622;2023-01-15T01:15:59;98756.19;;;10.29;55.03
68654;BME280;55636;51.108;13.622;2023-01-15T01:17:01;98750.66;;;10.29;55.04
68654;BME280;55636;51.108;13.622;2023-01-15T01:18:04;98746.78;;;10.30;55.06
68654;BME280;55636;51.108;13.622;2023-01-15T01:19:09;98751.19;;;10.31;55.08
68654;BME280;55636;51.108;13.622;2023-01-15T01:20:13;98748.44;;;10.31;55.07
68654;BME280;55636;51.108;13.622;2023-01-15T01:21:17;98742.91;;;10.31;55.01
68654;BME280;55636;51.108;13.622;2023-01-15T01:22:19;98750.09;;;10.32;54.98
68654;BME280;55636;51.108;13.622;2023-01-15T01:23:22;98758.38;;;10.32;55.01
68654;BME280;55636;51.108;13.622;2023-01-15T01:24:25;98758.38;;;10.32;54.93
68654;BME280;55636;51.108;13.622;2023-01-15T01:25:27;98759.97;;;10.33;55.05
68654;BME280;55636;51.108;13.622;2023-01-15T01:26:29;98751.41;;;10.34;55.09
68654;BME280;55636;51.108;13.622;2023-01-15T01:27:32;98752.25;;;10.35;54.93
68654;BME280;55636;51.108;13.622;2023-01-15T01:28:34;98756.66;;;10.36;54.87
68654;BME280;55636;51.108;13.622;2023-01-15T01:29:36;98749.97;;;10.37;55.10
68654;BME280;55636;51.108;13.622;2023-01-15T01:30:39;98752.25;;;10.35;54.83
68654;BME280;55636;51.108;13.622;2023-01-15T01:31:41;98746.72;;;10.35;54.93
68654;BME280;55636;51.108;13.622;2023-01-15T01:32:44;98746.41;;;10.36;55.04
68654;BME280;55636;51.108;13.622;2023-01-15T01:33:48;98747.22;;;10.37;55.02
68654;BME280;55636;51.108;13.622;2023-01-15T01:34:50;98744.19;;;10.39;55.04
68654;BME280;55636;51.108;13.622;2023-01-15T01:35:52;98749.41;;;10.40;54.98
68654;BME280;55636;51.108;13.622;2023-01-15T01:36:55;98748.56;;;10.40;55.03
68654;BME280;55636;51.108;13.622;2023-01-15T01:37:58;98749.09;;;10.42;54.86
68654;BME280;55636;51.108;13.622;2023-01-15T01:39:01;98748.28;;;10.41;54.86
68654;BME280;55636;51.108;13.622;2023-01-15T01:40:04;98743.28;;;10.43;54.84
68654;BME280;55636;51.108;13.622;2023-01-15T01:41:07;98748.50;;;10.45;54.89
68654;BME280;55636;51.108;13.622;2023-01-15T01:42:14;98736.63;;;10.44;54.98
68654;BME280;55636;51.108;13.622;2023-01-15T01:43:22;98745.72;;;10.45;54.84
68654;BME280;55636;51.108;13.622;2023-01-15T01:45:35;98750.97;;;10.46;54.73
68654;BME280;55636;51.108;13.622;2023-01-15T01:46:37;98738.78;;;10.47;54.81
68654;BME280;55636;51.108;13.622;2023-01-15T01:47:39;98767.25;;;10.48;54.91
68654;BME280;55636;51.108;13.622;2023-01-15T01:48:42;98758.66;;;10.49;54.74
68654;BME280;55636;51.108;13.622;2023-01-15T01:49:45;98741.28;;;10.49;54.82
68654;BME280;55636;51.108;13.622;2023-01-15T01:50:48;98742.91;;;10.50;54.72
68654;BME280;55636;51.108;13.622;2023-01-15T01:52:00;98755.59;;;10.51;54.99
68654;BME280;55636;51.108;13.622;2023-01-15T01:53:07;98747.31;;;10.51;54.94
68654;BME280;55636;51.108;13.622;2023-01-15T01:54:13;98745.38;;;10.51;54.92
68654;BME280;55636;51.108;13.622;2023-01-15T01:55:20;98759.19;;;10.51;54.66
68654;BME280;55636;51.108;13.622;2023-01-15T01:56:23;98754.47;;;10.52;54.90
68654;BME280;55636;51.108;13.622;2023-01-15T01:57:25;98746.72;;;10.54;55.06
68654;BME280;55636;51.108;13.622;2023-01-15T01:58:31;98750.28;;;10.55;54.89
68654;BME280;55636;51.108;13.622;2023-01-15T01:59:34;98745.56;;;10.55;54.92
68654;BME280;55636;51.108;13.622;2023-01-15T02:00:43;98739.78;;;10.57;54.94
68654;BME280;55636;51.108;13.622;2023-01-15T02:01:47;98736.19;;;10.56;54.79
68654;BME280;55636;51.108;13.622;2023-01-15T02:02:53;98745.56;;;10.55;54.88
68654;BME280;55636;51.108;13.622;2023-01-15T02:03:56;98739.25;;;10.55;54.90
68654;BME280;55636;51.108;13.622;2023-01-15T02:04:58;98740.06;;;10.55;54.96
68654;BME280;55636;51.108;13.622;2023-01-15T02:06:02;98747.53;;;10.55;54.87
68654;BME280;55636;51.108;13.622;2023-01-15T02:07:07;98742.81;;;10.55;54.94
68654;BME280;55636;51.108;13.622;2023-01-15T02:08:12;98733.13;;;10.58;54.89
68654;BME280;55636;51.108;13.622;2023-01-15T02:09:14;98734.25;;;10.57;54.81
68654;BME280;55636;51.108;13.622;2023-01-15T02:10:17;98737.03;;;10.57;54.79
68654;BME280;55636;51.108;13.622;2023-01-15T02:11:21;98741.94;;;10.60;54.75
68654;BME280;55636;51.108;13.622;2023-01-15T02:12:33;98740.28;;;10.59;54.77
68654;BME280;55636;51.108;13.622;2023-01-15T02:13:46;98741.94;;;10.60;54.89
68654;BME280;55636;51.108;13.622;2023-01-15T02:15:07;98741.31;;;10.63;54.63
68654;BME280;55636;51.108;13.622;2023-01-15T02:16:30;98741.00;;;10.64;54.73
68654;BME280;55636;51.108;13.622;2023-01-15T02:17:48;98733.56;;;10.65;54.79
68654;BME280;55636;51.108;13.622;2023-01-15T02:19:08;98731.63;;;10.65;54.78
68654;BME280;55636;51.108;13.622;2023-01-15T02:20:24;98736.03;;;10.66;54.58
68654;BME280;55636;51.108;13.622;2023-01-15T02:21:50;98725.78;;;10.67;54.68
68654;BME280;55636;51.108;13.622;2023-01-15T02:23:01;98720.25;;;10.67;54.66
68654;BME280;55636;51.108;13.622;2023-01-15T02:24:09;98726.63;;;10.67;54.74
68654;BME280;55636;51.108;13.622;2023-01-15T02:25:30;98724.66;;;10.68;54.77
68654;BME280;55636;51.108;13.622;2023-01-15T02:28:04;98726.84;;;10.71;54.53
68654;BME280;55636;51.108;13.622;2023-01-15T02:29:15;98722.44;;;10.70;54.67
68654;BME280;55636;51.108;13.622;2023-01-15T02:31:36;98725.69;;;10.72;54.63
68654;BME280;55636;51.108;13.622;2023-01-15T02:32:45;98724.59;;;10.73;54.43
68654;BME280;55636;51.108;13.622;2023-01-15T02:33:57;98717.16;;;10.74;54.33
68654;BME280;55636;51.108;13.622;2023-01-15T02:35:06;98729.81;;;10.75;54.40
68654;BME280;55636;51.108;13.622;2023-01-15T02:36:14;98724.28;;;10.75;54.52
68654;BME280;55636;51.108;13.622;2023-01-15T02:37:21;98717.16;;;10.74;54.46
68654;BME280;55636;51.108;13.622;2023-01-15T02:38:32;98714.38;;;10.74;54.23
68654;BME280;55636;51.108;13.622;2023-01-15T02:39:39;98712.44;;;10.74;54.45
68654;BME280;55636;51.108;13.622;2023-01-15T02:40:44;98710.19;;;10.76;54.44
68654;BME280;55636;51.108;13.622;2023-01-15T02:41:50;98709.06;;;10.77;54.35
68654;BME280;55636;51.108;13.622;2023-01-15T02:42:57;98704.06;;;10.79;54.40
68654;BME280;55636;51.108;13.622;2023-01-15T02:44:02;98698.84;;;10.78;54.47
68654;BME280;55636;51.108;13.622;2023-01-15T02:45:08;98711.53;;;10.79;54.51
68654;BME280;55636;51.108;13.622;2023-01-15T02:46:13;98706.50;;;10.81;54.47
68654;BME280;55636;51.108;13.622;2023-01-15T02:47:20;98710.91;;;10.82;54.46
68654;BME280;55636;51.108;13.622;2023-01-15T02:48:29;98705.09;;;10.83;54.32
68654;BME280;55636;51.108;13.622;2023-01-15T02:49:35;98701.22;;;10.84;54.32
68654;BME280;55636;51.108;13.622;2023-01-15T02:50:44;98700.91;;;10.86;54.61
68654;BME280;55636;51.108;13.622;2023-01-15T02:51:56;98684.31;;;10.86;54.48
68654;BME280;55636;51.108;13.622;2023-01-15T02:53:02;98686.78;;;10.88;54.55
68654;BME280;55636;51.108;13.622;2023-01-15T02:54:12;98686.78;;;10.88;54.65
68654;BME280;55636;51.108;13.622;2023-01-15T02:55:25;98694.75;;;10.89;54.57
68654;BME280;55636;51.108;13.622;2023-01-15T02:56:32;98677.38;;;10.89;54.59
68654;BME280;55636;51.108;13.622;2023-01-15T02:57:40;98685.34;;;10.90;54.60
68654;BME280;55636;51.108;13.622;2023-01-15T02:58:46;98685.03;;;10.92;54.51
68654;BME280;55636;51.108;13.622;2023-01-15T02:59:50;98686.19;;;10.91;54.54
68654;BME280;55636;51.108;13.622;2023-01-15T03:00:57;98694.47;;;10.91;54.49
68654;BME280;55636;51.108;13.622;2023-01-15T03:02:05;98690.56;;;10.92;54.47
68654;BME280;55636;51.108;13.622;2023-01-15T03:03:25;98688.66;;;10.92;54.37
68654;BME280;55636;51.108;13.622;2023-01-15T03:06:06;98692.22;;;10.93;54.41
68654;BME280;55636;51.108;13.622;2023-01-15T03:07:17;98682.28;;;10.92;54.25
68654;BME280;55636;51.108;13.622;2023-01-15T03:08:22;98679.25;;;10.93;54.10
68654;BME280;55636;51.108;13.622;2023-01-15T03:09:26;98674.53;;;10.94;54.04
68654;BME280;55636;51.108;13.622;2023-01-15T03:12:19;98677.59;;;10.92;54.11
68654;BME280;55636;51.108;13.622;2023-01-15T03:14:56;98672.06;;;10.92;54.15
68654;BME280;55636;51.108;13.622;2023-01-15T03:16:08;98669.00;;;10.94;54.12
68654;BME280;55636;51.108;13.622;2023-01-15T03:17:47;98666.56;;;10.92;53.86
68654;BME280;55636;51.108;13.622;2023-01-15T03:20:21;98662.66;;;10.93;54.01
68654;BME280;55636;51.108;13.622;2023-01-15T03:22:43;98657.94;;;10.94;54.01
68654;BME280;55636;51.108;13.622;2023-01-15T03:23:50;98659.91;;;10.93;53.92
68654;BME280;55636;51.108;13.622;2023-01-15T03:25:06;98662.34;;;10.95;54.00
68654;BME280;55636;51.108;13.622;2023-01-15T03:26:16;98661.81;;;10.93;54.00
68654;BME280;55636;51.108;13.622;2023-01-15T03:27:20;98654.38;;;10.93;53.91
68654;BME280;55636;51.108;13.622;2023-01-15T03:28:32;98640.25;;;10.95;53.87
68654;BME280;55636;51.108;13.622;2023-01-15T03:29:42;98641.38;;;10.94;53.90
68654;BME280;55636;51.108;13.622;2023-01-15T03:30:45;98643.81;;;10.95;53.78
68654;BME280;55636;51.108;13.622;2023-01-15T03:31:48;98645.78;;;10.95;53.69
68654;BME280;55636;51.108;13.622;2023-01-15T03:32:53;98638.00;;;10.97;53.92
68654;BME280;55636;51.108;13.622;2023-01-15T03:33:56;98647.94;;;10.98;53.87
68654;BME280;55636;51.108;13.622;2023-01-15T03:34:59;98640.47;;;10.98;53.86
68654;BME280;55636;51.108;13.622;2023-01-15T03:36:02;98641.28;;;10.99;54.03
68654;BME280;55636;51.108;13.622;2023-01-15T03:37:14;98627.47;;;10.99;53.77
68654;BME280;55636;51.108;13.622;2023-01-15T03:38:23;98629.91;;;11.00;53.82
68654;BME280;55636;51.108;13.622;2023-01-15T03:39:28;98620.81;;;11.00;53.92
68654;BME280;55636;51.108;13.622;2023-01-15T03:42:25;98634.31;;;11.01;53.97
68654;BME280;55636;51.108;13.622;2023-01-15T03:43:44;98638.75;;;11.02;53.98
68654;BME280;55636;51.108;13.622;2023-01-15T03:45:58;98636.47;;;11.05;53.74
68654;BME280;55636;51.108;13.622;2023-01-15T03:50:55;98635.88;;;11.08;53.82
68654;BME280;55636;51.108;13.622;2023-01-15T03:53:39;98624.81;;;11.08;54.04
68654;BME280;55636;51.108;13.622;2023-01-15T03:55:18;98632.81;;;11.09;54.29
68654;BME280;55636;51.108;13.622;2023-01-15T03:56:18;98626.44;;;11.09;54.38
68654;BME280;55636;51.108;13.622;2023-01-15T03:57:36;98630.34;;;11.08;54.36
68654;BME280;55636;51.108;13.622;2023-01-15T03:58:43;98633.91;;;11.08;54.45
68654;BME280;55636;51.108;13.622;2023-01-15T03:59:54;98624.81;;;11.08;54.65
68654;BME280;55636;51.108;13.622;2023-01-15T04:00:59;98625.94;;;11.07;54.86
68654;BME280;55636;51.108;13.622;2023-01-15T04:02:06;98627.88;;;11.06;54.89
68654;BME280;55636;51.108;13.622;2023-01-15T04:03:11;98623.97;;;11.07;54.75
68654;BME280;55636;51.108;13.622;2023-01-15T04:04:15;98630.34;;;11.08;54.65
68654;BME280;55636;51.108;13.622;2023-01-15T04:05:20;98631.47;;;11.07;54.74
68654;BME280;55636;51.108;13.622;2023-01-15T04:06:23;98625.63;;;11.08;54.67
68654;BME280;55636;51.108;13.622;2023-01-15T04:07:27;98623.69;;;11.09;54.55
68654;BME280;55636;51.108;13.622;2023-01-15T04:08:33;98631.97;;;11.09;54.72
68654;BME280;55636;51.108;13.622;2023-01-15T04:09:38;98637.22;;;11.10;54.55
68654;BME280;55636;51.108;13.622;2023-01-15T04:10:55;98630.03;;;11.09;54.74
68654;BME280;55636;51.108;13.622;2023-01-15T04:12:01;98628.09;;;11.10;54.67
68654;BME280;55636;51.108;13.622;2023-01-15T04:13:11;98622.56;;;11.10;54.78
68654;BME280;55636;51.108;13.622;2023-01-15T04:14:15;98630.03;;;11.09;54.77
68654;BME280;55636;51.108;13.622;2023-01-15T04:15:20;98628.09;;;11.10;54.94
68654;BME280;55636;51.108;13.622;2023-01-15T04:16:26;98634.44;;;11.10;54.90
68654;BME280;55636;51.108;13.622;2023-01-15T04:17:29;98629.72;;;11.11;55.11
68654;BME280;55636;51.108;13.622;2023-01-15T04:18:32;98626.44;;;11.09;55.00
68654;BME280;55636;51.108;13.622;2023-01-15T04:19:34;98627.28;;;11.09;55.14
68654;BME280;55636;51.108;13.622;2023-01-15T04:20:42;98635.56;;;11.09;55.00
68654;BME280;55636;51.108;13.622;2023-01-15T04:21:45;98621.75;;;11.09;55.25
68654;BME280;55636;51.108;13.622;2023-01-15T04:22:49;98621.75;;;11.09;55.25
68654;BME280;55636;51.108;13.622;2023-01-15T04:23:52;98630.03;;;11.09;55.32
68654;BME280;55636;51.108;13.622;2023-01-15T04:24:54;98612.63;;;11.09;55.39
68654;BME280;55636;51.108;13.622;2023-01-15T04:25:56;98617.88;;;11.10;55.23
68654;BME280;55636;51.108;13.622;2023-01-15T04:26:58;98602.09;;;11.11;55.41
68654;BME280;55636;51.108;13.622;2023-01-15T04:28:02;98607.63;;;11.11;55.44
68654;BME280;55636;51.108;13.622;2023-01-15T04:29:04;98610.38;;;11.11;55.53
68654;BME280;55636;51.108;13.622;2023-01-15T04:30:07;98611.19;;;11.11;55.53
68654;BME280;55636;51.108;13.622;2023-01-15T04:31:10;98602.09;;;11.11;55.43
68654;BME280;55636;51.108;13.622;2023-01-15T04:32:13;98608.44;;;11.11;55.57
68654;BME280;55636;51.108;13.622;2023-01-15T04:33:16;98595.44;;;11.12;55.61
68654;BME280;55636;51.108;13.622;2023-01-15T04:34:18;98597.38;;;11.11;55.61
68654;BME280;55636;51.108;13.622;2023-01-15T04:35:20;98601.28;;;11.10;55.69
68654;BME280;55636;51.108;13.622;2023-01-15T04:36:22;98600.44;;;11.10;55.55
68654;BME280;55636;51.108;13.622;2023-01-15T04:37:25;98590.25;;;11.10;55.81
68654;BME280;55636;51.108;13.622;2023-01-15T04:38:27;98589.91;;;11.12;55.89
68654;BME280;55636;51.108;13.622;2023-01-15T04:39:30;98601.28;;;11.10;55.62
68654;BME280;55636;51.108;13.622;2023-01-15T04:40:32;98595.75;;;11.10;55.83
68654;BME280;55636;51.108;13.622;2023-01-15T04:41:53;98592.16;;;11.10;55.73
68654;BME280;55636;51.108;13.622;2023-01-15T04:43:14;98591.03;;;11.11;55.81
68654;BME280;55636;51.108;13.622;2023-01-15T04:44:36;98585.50;;;11.11;55.42
68654;BME280;55636;51.108;13.622;2023-01-15T04:45:38;98593.00;;;11.10;55.69
68654;BME280;55636;51.108;13.622;2023-01-15T04:46:50;98581.94;;;11.10;55.43
68654;BME280;55636;51.108;13.622;2023-01-15T04:47:52;98580.31;;;11.09;55.62
68654;BME280;55636;51.108;13.622;2023-01-15T04:48:54;98585.00;;;11.09;55.50
68654;BME280;55636;51.108;13.622;2023-01-15T04:49:56;98578.66;;;11.08;55.48
68654;BME280;55636;51.108;13.622;2023-01-15T04:51:02;98570.91;;;11.10;55.55
68654;BME280;55636;51.108;13.622;2023-01-15T04:52:05;98577.53;;;11.09;55.55
68654;BME280;55636;51.108;13.622;2023-01-15T04:53:07;98582.22;;;11.09;55.33
68654;BME280;55636;51.108;13.622;2023-01-15T04:54:11;98578.88;;;11.12;55.19
68654;BME280;55636;51.108;13.622;2023-01-15T04:55:14;98560.66;;;11.11;55.51
68654;BME280;55636;51.108;13.622;2023-01-15T04:56:16;98570.59;;;11.12;55.29
68654;BME280;55636;51.108;13.622;2023-01-15T04:57:18;98565.06;;;11.12;55.25
68654;BME280;55636;51.108;13.622;2023-01-15T04:58:21;98568.63;;;11.12;55.28
68654;BME280;55636;51.108;13.622;2023-01-15T04:59:25;98551.25;;;11.12;55.30
68654;BME280;55636;51.108;13.622;2023-01-15T05:00:28;98558.69;;;11.11;55.09
68654;BME280;55636;51.108;13.622;2023-01-15T05:01:30;98555.94;;;11.11;54.96
68654;BME280;55636;51.108;13.622;2023-01-15T05:02:33;98553.16;;;11.11;55.12
68654;BME280;55636;51.108;13.622;2023-01-15T05:03:35;98557.88;;;11.11;55.00
68654;BME280;55636;51.108;13.622;2023-01-15T05:04:37;98563.94;;;11.13;55.05
68654;BME280;55636;51.108;13.622;2023-01-15T05:05:40;98554.81;;;11.12;55.08
68654;BME280;55636;51.108;13.622;2023-01-15T05:06:42;98550.94;;;11.13;54.81
68654;BME280;55636;51.108;13.622;2023-01-15T05:07:44;98550.94;;;11.13;54.86
68654;BME280;55636;51.108;13.622;2023-01-15T05:08:46;98551.72;;;11.14;54.81
68654;BME280;55636;51.108;13.622;2023-01-15T05:09:48;98558.09;;;11.14;54.99
68654;BME280;55636;51.108;13.622;2023-01-15T05:10:52;98553.38;;;11.15;54.82
68654;BME280;55636;51.108;13.622;2023-01-15T05:11:54;98551.72;;;11.14;54.91
68654;BME280;55636;51.108;13.622;2023-01-15T05:12:56;98550.63;;;11.15;54.69
68654;BME280;55636;51.108;13.622;2023-01-15T05:13:59;98557.78;;;11.16;54.86
68654;BME280;55636;51.108;13.622;2023-01-15T05:15:01;98552.56;;;11.14;54.81
68654;BME280;55636;51.108;13.622;2023-01-15T05:16:08;98560.53;;;11.16;54.56
68654;BME280;55636;51.108;13.622;2023-01-15T05:17:10;98566.06;;;11.16;54.54
68654;BME280;55636;51.108;13.622;2023-01-15T05:18:13;98559.75;;;11.15;54.60
68654;BME280;55636;51.108;13.622;2023-01-15T05:19:16;98562.19;;;11.17;54.44
68654;BME280;55636;51.108;13.622;2023-01-15T05:20:18;98554.69;;;11.17;54.54
68654;BME280;55636;51.108;13.622;2023-01-15T05:21:23;98561.06;;;11.18;54.55
68654;BME280;55636;51.108;13.622;2023-01-15T05:22:25;98561.06;;;11.18;54.73
68654;BME280;55636;51.108;13.622;2023-01-15T05:23:27;98561.88;;;11.18;54.62
68654;BME280;55636;51.108;13.622;2023-01-15T05:24:29;98556.34;;;11.18;54.61
68654;BME280;55636;51.108;13.622;2023-01-15T05:25:32;98556.03;;;11.20;54.33
68654;BME280;55636;51.108;13.622;2023-01-15T05:26:35;98559.63;;;11.21;54.29
68654;BME280;55636;51.108;13.622;2023-01-15T05:27:37;98555.22;;;11.19;54.33
68654;BME280;55636;51.108;13.622;2023-01-15T05:28:39;98558.78;;;11.20;54.33
68654;BME280;55636;51.108;13.622;2023-01-15T05:29:42;98551.34;;;11.21;54.42
68654;BME280;55636;51.108;13.622;2023-01-15T05:30:44;98554.91;;;11.21;54.25
68654;BME280;55636;51.108;13.622;2023-01-15T05:31:46;98554.09;;;11.21;54.30
68654;BME280;55636;51.108;13.622;2023-01-15T05:32:50;98532.28;;;11.19;54.23
68654;BME280;55636;51.108;13.622;2023-01-15T05:33:53;98543.34;;;11.19;54.29
68654;BME280;55636;51.108;13.622;2023-01-15T05:34:56;98548.56;;;11.21;54.25
68654;BME280;55636;51.108;13.622;2023-01-15T05:36:03;98545.50;;;11.22;54.23
68654;BME280;55636;51.108;13.622;2023-01-15T05:37:06;98552.66;;;11.23;54.28
68654;BME280;55636;51.108;13.622;2023-01-15T05:38:08;98549.91;;;11.23;54.25
68654;BME280;55636;51.108;13.622;2023-01-15T05:39:10;98545.19;;;11.24;54.15
68654;BME280;55636;51.108;13.622;2023-01-15T05:40:12;98550.41;;;11.25;54.29
68654;BME280;55636;51.108;13.622;2023-01-15T05:41:17;98553.16;;;11.25;54.13
68654;BME280;55636;51.108;13.622;2023-01-15T05:42:38;98548.47;;;11.26;54.19
68654;BME280;55636;51.108;13.622;2023-01-15T05:43:40;98544.88;;;11.25;54.25
68654;BME280;55636;51.108;13.622;2023-01-15T05:44:42;98549.28;;;11.26;54.29
68654;BME280;55636;51.108;13.622;2023-01-15T05:45:44;98541.47;;;11.28;54.34
68654;BME280;55636;51.108;13.622;2023-01-15T05:46:47;98556.13;;;11.29;54.31
68654;BME280;55636;51.108;13.622;2023-01-15T05:47:52;98550.59;;;11.29;54.23
68654;BME280;55636;51.108;13.622;2023-01-15T05:48:59;98552.25;;;11.30;54.01
68654;BME280;55636;51.108;13.622;2023-01-15T05:50:02;98555.81;;;11.30;54.02
68654;BME280;55636;51.108;13.622;2023-01-15T05:51:04;98549.47;;;11.30;54.14
68654;BME280;55636;51.108;13.622;2023-01-15T05:52:06;98550.28;;;11.30;54.09
68654;BME280;55636;51.108;13.622;2023-01-15T05:53:09;98551.09;;;11.31;53.98
68654;BME280;55636;51.108;13.622;2023-01-15T05:54:14;98559.09;;;11.32;54.04
68654;BME280;55636;51.108;13.622;2023-01-15T05:55:16;98559.09;;;11.32;53.91
68654;BME280;55636;51.108;13.622;2023-01-15T05:56:19;98551.63;;;11.33;53.99
68654;BME280;55636;51.108;13.622;2023-01-15T05:57:21;98554.38;;;11.33;53.94
68654;BME280;55636;51.108;13.622;2023-01-15T05:58:23;98548.84;;;11.33;53.86
68654;BME280;55636;51.108;13.622;2023-01-15T05:59:27;98539.75;;;11.32;54.01
68654;BME280;55636;51.108;13.622;2023-01-15T06:00:29;98548.84;;;11.33;53.82
68654;BME280;55636;51.108;13.622;2023-01-15T06:01:32;98557.94;;;11.33;53.83